createdAt,value
2018-12-26T00:00:10.622Z,2.90
2018-12-26T00:01:14.239Z,2.89
2018-12-26T00:02:20.676Z,2.89
2018-12-26T00:03:24.186Z,2.85
2018-12-26T00:04:27.673Z,2.83
2018-12-26T00:05:31.146Z,2.81
2018-12-26T00:06:34.554Z,2.79
2018-12-26T00:07:38.058Z,2.71
2018-12-26T00:08:41.487Z,2.69
2018-12-26T00:09:44.952Z,2.69
2018-12-26T00:10:48.402Z,2.74
2018-12-26T00:11:51.831Z,2.77
2018-12-26T00:12:55.257Z,2.76
2018-12-26T00:13:58.690Z,2.76
2018-12-26T00:15:02.148Z,2.77
2018-12-26T00:16:05.674Z,2.76
2018-12-26T00:17:09.244Z,2.73
2018-12-26T00:18:12.676Z,2.70
2018-12-26T00:19:16.181Z,2.73
2018-12-26T00:20:19.638Z,2.75
2018-12-26T00:21:23.086Z,2.76
2018-12-26T00:22:26.515Z,2.77
2018-12-26T00:23:29.947Z,2.75
2018-12-26T00:24:33.386Z,2.76
2018-12-26T00:25:36.841Z,2.73
2018-12-26T00:26:40.367Z,2.68
2018-12-26T00:27:43.794Z,2.67
2018-12-26T00:28:47.320Z,2.67
2018-12-26T00:29:50.756Z,2.63
2018-12-26T00:30:54.201Z,2.61
2018-12-26T00:31:57.654Z,2.58
2018-12-26T00:33:01.119Z,2.57
2018-12-26T00:34:04.534Z,2.60
2018-12-26T00:35:07.990Z,2.56
2018-12-26T00:36:11.447Z,2.51
2018-12-26T00:37:14.909Z,2.52
2018-12-26T00:38:18.344Z,2.54
2018-12-26T00:39:21.858Z,2.52
2018-12-26T00:40:25.296Z,2.50
2018-12-26T00:41:28.798Z,2.46
2018-12-26T00:42:32.233Z,2.46
2018-12-26T00:43:35.667Z,2.48
2018-12-26T00:44:39.109Z,2.50
2018-12-26T00:45:42.614Z,2.40
2018-12-26T00:46:46.141Z,2.36
2018-12-26T00:47:49.579Z,2.34
2018-12-26T00:48:53.008Z,2.29
2018-12-26T00:49:56.436Z,2.28
2018-12-26T00:50:59.873Z,2.27
2018-12-26T00:52:03.324Z,2.27
2018-12-26T00:53:06.758Z,2.24
2018-12-26T00:54:10.196Z,2.23
2018-12-26T00:55:13.637Z,2.24
2018-12-26T00:56:17.065Z,2.20
2018-12-26T00:57:20.590Z,2.21
2018-12-26T00:58:24.022Z,2.22
2018-12-26T00:59:27.451Z,2.20
2018-12-26T01:00:30.884Z,2.20
2018-12-26T01:01:34.348Z,2.19
2018-12-26T01:02:37.806Z,2.19
2018-12-26T01:03:41.256Z,2.19
2018-12-26T01:04:44.745Z,2.23
2018-12-26T01:05:48.203Z,2.25
2018-12-26T01:06:51.645Z,2.28
2018-12-26T01:07:55.286Z,2.32
2018-12-26T01:08:58.699Z,2.30
2018-12-26T01:10:02.142Z,2.25
2018-12-26T01:11:05.561Z,2.23
2018-12-26T01:12:09.142Z,2.21
2018-12-26T01:13:12.616Z,2.24
2018-12-26T01:14:16.051Z,2.25
2018-12-26T01:15:19.498Z,2.30
2018-12-26T01:16:22.936Z,2.33
2018-12-26T01:17:26.370Z,2.39
2018-12-26T01:18:29.841Z,2.42
2018-12-26T01:19:33.286Z,2.36
2018-12-26T01:20:36.730Z,2.35
2018-12-26T01:21:40.161Z,2.32
2018-12-26T01:22:43.597Z,2.30
2018-12-26T01:23:47.135Z,2.31
2018-12-26T01:24:50.582Z,2.29
2018-12-26T01:25:54.021Z,2.31
2018-12-26T01:26:57.460Z,2.29
2018-12-26T01:28:00.893Z,2.33
2018-12-26T01:29:04.423Z,2.34
2018-12-26T01:30:08.014Z,2.34
2018-12-26T01:31:11.452Z,2.35
2018-12-26T01:32:14.888Z,2.35
2018-12-26T01:33:18.320Z,2.33
2018-12-26T01:34:21.786Z,2.32
2018-12-26T01:35:25.315Z,2.30
2018-12-26T01:36:28.742Z,2.27
2018-12-26T01:37:32.254Z,2.25
2018-12-26T01:38:35.682Z,2.22
2018-12-26T01:39:39.126Z,2.23
2018-12-26T01:40:42.586Z,2.25
2018-12-26T01:41:46.027Z,2.29
2018-12-26T01:42:49.464Z,2.33
2018-12-26T01:43:52.973Z,2.32
2018-12-26T01:44:56.423Z,2.33
2018-12-26T01:45:59.874Z,2.32
2018-12-26T01:47:03.545Z,2.32
2018-12-26T01:48:06.985Z,2.31
2018-12-26T01:49:10.418Z,2.23
2018-12-26T01:50:13.952Z,2.20
2018-12-26T01:51:17.407Z,2.17
2018-12-26T01:52:20.849Z,2.08
2018-12-26T01:53:24.349Z,2.08
2018-12-26T01:54:27.845Z,2.08
2018-12-26T01:55:31.296Z,2.10
2018-12-26T01:56:34.785Z,2.12
2018-12-26T01:57:38.219Z,2.12
2018-12-26T01:58:41.668Z,2.13
2018-12-26T01:59:45.092Z,2.14
2018-12-26T02:00:48.713Z,2.16
2018-12-26T02:01:52.134Z,2.19
2018-12-26T02:02:55.571Z,2.19
2018-12-26T02:03:59.150Z,2.21
2018-12-26T02:05:02.622Z,2.23
2018-12-26T02:06:06.111Z,2.25
2018-12-26T02:07:09.641Z,2.22
2018-12-26T02:08:13.081Z,2.22
2018-12-26T02:09:16.591Z,2.23
2018-12-26T02:10:20.029Z,2.20
2018-12-26T02:11:23.497Z,2.19
2018-12-26T02:12:26.972Z,2.21
2018-12-26T02:13:30.398Z,2.25
2018-12-26T02:14:33.831Z,2.26
2018-12-26T02:15:37.347Z,2.25
2018-12-26T02:16:40.786Z,2.26
2018-12-26T02:17:44.240Z,2.29
2018-12-26T02:18:47.743Z,2.33
2018-12-26T02:19:51.266Z,2.36
2018-12-26T02:20:54.939Z,2.37
2018-12-26T02:21:58.400Z,2.35
2018-12-26T02:23:01.852Z,2.35
2018-12-26T02:24:05.365Z,2.34
2018-12-26T02:25:08.933Z,2.34
2018-12-26T02:26:12.478Z,2.33
2018-12-26T02:27:15.891Z,2.34
2018-12-26T02:28:19.355Z,2.35
2018-12-26T02:29:22.798Z,2.38
2018-12-26T02:30:26.227Z,2.38
2018-12-26T02:31:29.659Z,2.39
2018-12-26T02:32:33.179Z,2.41
2018-12-26T02:33:36.666Z,2.44
2018-12-26T02:34:40.104Z,2.47
2018-12-26T02:35:43.676Z,2.50
2018-12-26T02:36:47.120Z,2.53
2018-12-26T02:37:50.574Z,2.56
2018-12-26T02:38:54.037Z,2.58
2018-12-26T02:39:57.469Z,2.63
2018-12-26T02:41:00.973Z,2.68
2018-12-26T02:42:04.597Z,2.72
2018-12-26T02:43:08.127Z,2.74
2018-12-26T02:44:11.577Z,2.76
2018-12-26T02:45:15.083Z,2.77
2018-12-26T02:46:18.521Z,2.79
2018-12-26T02:47:22.031Z,2.79
2018-12-26T02:48:25.482Z,2.77
2018-12-26T02:49:28.940Z,2.76
2018-12-26T02:50:32.442Z,2.75
2018-12-26T02:51:35.875Z,2.74
2018-12-26T02:52:39.307Z,2.74
2018-12-26T02:53:43.294Z,2.73
2018-12-26T02:54:46.748Z,2.73
2018-12-26T02:55:50.175Z,2.71
2018-12-26T02:56:53.610Z,2.72
2018-12-26T02:57:57.045Z,2.69
2018-12-26T02:59:00.489Z,2.68
2018-12-26T03:00:05.680Z,2.68
2018-12-26T03:01:09.182Z,2.66
2018-12-26T03:02:12.624Z,2.66
2018-12-26T03:03:16.186Z,2.63
2018-12-26T03:04:19.631Z,2.62
2018-12-26T03:05:23.086Z,2.60
2018-12-26T03:06:26.515Z,2.53
2018-12-26T03:07:30.028Z,2.49
2018-12-26T03:08:33.458Z,2.49
2018-12-26T03:09:36.915Z,2.50
2018-12-26T03:10:40.367Z,2.51
2018-12-26T03:11:43.796Z,2.56
2018-12-26T03:12:47.245Z,2.65
2018-12-26T03:13:50.821Z,2.63
2018-12-26T03:14:54.405Z,2.62
2018-12-26T03:15:57.840Z,2.62
2018-12-26T03:17:01.272Z,2.59
2018-12-26T03:18:04.784Z,2.58
2018-12-26T03:19:08.217Z,2.56
2018-12-26T03:20:11.667Z,2.56
2018-12-26T03:21:15.116Z,2.53
2018-12-26T03:22:18.553Z,2.42
2018-12-26T03:23:21.991Z,2.34
2018-12-26T03:24:25.430Z,2.22
2018-12-26T03:25:28.901Z,2.18
2018-12-26T03:26:32.339Z,2.11
2018-12-26T03:27:35.766Z,2.03
2018-12-26T03:28:39.198Z,2.02
2018-12-26T03:29:42.640Z,2.07
2018-12-26T03:30:46.170Z,2.15
2018-12-26T03:31:49.616Z,2.17
2018-12-26T03:32:53.045Z,2.22
2018-12-26T03:33:56.466Z,2.27
2018-12-26T03:34:59.905Z,2.29
2018-12-26T03:36:03.359Z,2.31
2018-12-26T03:37:06.953Z,2.33
2018-12-26T03:38:10.372Z,2.35
2018-12-26T03:39:13.885Z,2.36
2018-12-26T03:40:17.450Z,2.37
2018-12-26T03:41:21.080Z,2.39
2018-12-26T03:42:24.620Z,2.36
2018-12-26T03:43:28.191Z,2.33
2018-12-26T03:44:32.684Z,2.35
2018-12-26T03:45:36.185Z,2.36
2018-12-26T03:46:39.788Z,2.37
2018-12-26T03:47:43.885Z,2.39
2018-12-26T03:48:47.400Z,2.44
2018-12-26T03:49:50.979Z,2.49
2018-12-26T03:50:54.416Z,2.47
2018-12-26T03:51:57.942Z,2.44
2018-12-26T03:53:01.559Z,2.34
2018-12-26T03:54:05.063Z,2.30
2018-12-26T03:55:08.575Z,2.24
2018-12-26T03:56:12.171Z,2.25
2018-12-26T03:57:15.627Z,2.23
2018-12-26T03:58:19.146Z,2.20
2018-12-26T03:59:22.674Z,2.14
2018-12-26T04:00:26.220Z,2.15
2018-12-26T04:01:29.717Z,2.19
2018-12-26T04:02:33.169Z,2.12
2018-12-26T04:03:36.758Z,2.09
2018-12-26T04:04:40.431Z,2.03
2018-12-26T04:05:43.941Z,1.95
2018-12-26T04:06:47.382Z,2.01
2018-12-26T04:07:51.193Z,1.86
2018-12-26T04:08:54.698Z,1.83
2018-12-26T04:09:58.198Z,1.86
2018-12-26T04:11:01.986Z,1.93
2018-12-26T04:12:05.490Z,1.95
2018-12-26T04:13:08.949Z,1.97
2018-12-26T04:14:12.468Z,2.01
2018-12-26T04:15:15.903Z,2.04
2018-12-26T04:16:19.472Z,2.07
2018-12-26T04:17:23.254Z,2.06
2018-12-26T04:18:26.883Z,2.05
2018-12-26T04:19:30.465Z,2.02
2018-12-26T04:20:34.140Z,1.97
2018-12-26T04:21:38.012Z,1.95
2018-12-26T04:22:41.526Z,1.83
2018-12-26T04:23:44.990Z,1.74
2018-12-26T04:24:48.579Z,1.77
2018-12-26T04:25:52.193Z,1.80
2018-12-26T04:26:55.630Z,1.86
2018-12-26T04:27:59.048Z,1.86
2018-12-26T04:29:02.506Z,1.91
2018-12-26T04:30:08.713Z,1.85
2018-12-26T04:31:12.143Z,1.68
2018-12-26T04:32:15.587Z,1.75
2018-12-26T04:33:19.097Z,1.81
2018-12-26T04:34:22.550Z,1.85
2018-12-26T04:35:26.018Z,1.89
2018-12-26T04:36:29.451Z,1.91
2018-12-26T04:37:32.884Z,1.92
2018-12-26T04:38:36.394Z,1.95
2018-12-26T04:39:39.863Z,1.98
2018-12-26T04:40:43.309Z,1.97
2018-12-26T04:41:46.738Z,1.95
2018-12-26T04:42:50.226Z,1.96
2018-12-26T04:43:53.659Z,1.95
2018-12-26T04:44:57.105Z,1.96
2018-12-26T04:46:00.558Z,1.97
2018-12-26T04:47:04.062Z,1.98
2018-12-26T04:48:07.498Z,1.98
2018-12-26T04:49:10.935Z,1.99
2018-12-26T04:50:14.384Z,2.01
2018-12-26T04:51:17.854Z,2.02
2018-12-26T04:52:21.288Z,2.06
2018-12-26T04:53:24.724Z,2.11
2018-12-26T04:54:28.165Z,2.12
2018-12-26T04:55:31.622Z,2.15
2018-12-26T04:56:35.093Z,2.19
2018-12-26T04:57:38.510Z,2.19
2018-12-26T04:58:41.942Z,2.14
2018-12-26T04:59:45.378Z,2.15
2018-12-26T05:00:48.844Z,2.14
2018-12-26T05:01:52.357Z,2.15
2018-12-26T05:02:55.792Z,2.15
2018-12-26T05:03:59.242Z,2.17
2018-12-26T05:05:02.660Z,2.16
2018-12-26T05:06:06.114Z,2.13
2018-12-26T05:07:09.638Z,2.13
2018-12-26T05:08:13.069Z,2.14
2018-12-26T05:09:16.508Z,2.18
2018-12-26T05:10:19.948Z,2.18
2018-12-26T05:11:23.470Z,2.16
2018-12-26T05:12:27.048Z,2.11
2018-12-26T05:13:30.559Z,2.12
2018-12-26T05:14:34.053Z,2.11
2018-12-26T05:15:37.562Z,2.12
2018-12-26T05:16:41.088Z,2.11
2018-12-26T05:17:44.529Z,2.12
2018-12-26T05:18:48.098Z,2.12
2018-12-26T05:19:51.598Z,2.12
2018-12-26T05:20:55.103Z,2.13
2018-12-26T05:21:58.695Z,2.14
2018-12-26T05:23:02.275Z,2.17
2018-12-26T05:24:05.712Z,2.21
2018-12-26T05:25:09.210Z,2.21
2018-12-26T05:26:12.715Z,2.21
2018-12-26T05:27:16.171Z,2.25
2018-12-26T05:28:19.620Z,2.23
2018-12-26T05:29:23.047Z,2.20
2018-12-26T05:30:26.474Z,2.22
2018-12-26T05:31:29.986Z,2.26
2018-12-26T05:32:33.433Z,2.32
2018-12-26T05:33:36.871Z,2.33
2018-12-26T05:34:40.302Z,2.28
2018-12-26T05:35:43.737Z,2.27
2018-12-26T05:36:47.175Z,2.33
2018-12-26T05:37:50.697Z,2.30
2018-12-26T05:38:54.131Z,2.15
2018-12-26T05:39:57.568Z,2.12
2018-12-26T05:41:01.020Z,2.08
2018-12-26T05:42:04.539Z,2.13
2018-12-26T05:43:08.101Z,2.14
2018-12-26T05:44:11.536Z,2.21
2018-12-26T05:45:16.021Z,2.25
2018-12-26T05:46:19.582Z,2.25
2018-12-26T05:47:23.029Z,2.27
2018-12-26T05:48:26.474Z,2.26
2018-12-26T05:49:29.904Z,2.28
2018-12-26T05:50:33.351Z,2.30
2018-12-26T05:51:36.774Z,2.32
2018-12-26T05:52:40.225Z,2.32
2018-12-26T05:53:43.745Z,2.31
2018-12-26T05:54:47.173Z,2.32
2018-12-26T05:55:50.605Z,2.34
2018-12-26T05:56:54.042Z,2.38
2018-12-26T05:57:57.494Z,2.44
2018-12-26T05:59:00.927Z,2.50
2018-12-26T06:00:06.275Z,2.49
2018-12-26T06:01:09.704Z,2.53
2018-12-26T06:02:13.137Z,2.55
2018-12-26T06:03:16.591Z,2.56
2018-12-26T06:04:20.043Z,2.56
2018-12-26T06:05:23.479Z,2.54
2018-12-26T06:06:26.912Z,2.58
2018-12-26T06:07:30.346Z,2.59
2018-12-26T06:08:33.864Z,2.61
2018-12-26T06:09:37.324Z,2.65
2018-12-26T06:10:40.826Z,2.69
2018-12-26T06:11:44.320Z,2.68
2018-12-26T06:12:47.893Z,2.69
2018-12-26T06:13:51.337Z,2.75
2018-12-26T06:14:54.821Z,2.77
2018-12-26T06:15:58.405Z,2.78
2018-12-26T06:17:01.982Z,2.87
2018-12-26T06:18:05.418Z,2.83
2018-12-26T06:19:09.034Z,2.83
2018-12-26T06:20:12.485Z,2.82
2018-12-26T06:21:16.035Z,2.81
2018-12-26T06:22:19.481Z,2.81
2018-12-26T06:23:22.909Z,2.79
2018-12-26T06:24:26.360Z,2.78
2018-12-26T06:25:29.787Z,2.78
2018-12-26T06:26:33.220Z,2.79
2018-12-26T06:27:36.851Z,2.79
2018-12-26T06:28:40.660Z,2.82
2018-12-26T06:29:44.242Z,2.83
2018-12-26T06:30:47.849Z,2.86
2018-12-26T06:31:51.282Z,2.90
2018-12-26T06:32:54.752Z,2.91
2018-12-26T06:33:58.274Z,2.92
2018-12-26T06:35:01.737Z,2.98
2018-12-26T06:36:05.525Z,2.99
2018-12-26T06:37:08.984Z,2.99
2018-12-26T06:38:12.410Z,2.98
2018-12-26T06:39:15.870Z,2.97
2018-12-26T06:40:19.401Z,2.95
2018-12-26T06:41:22.855Z,2.97
2018-12-26T06:42:26.341Z,2.99
2018-12-26T06:43:29.765Z,2.96
2018-12-26T06:44:33.224Z,2.93
2018-12-26T06:45:36.671Z,2.96
2018-12-26T06:46:40.163Z,2.94
2018-12-26T06:47:43.623Z,2.94
2018-12-26T06:48:47.239Z,2.91
2018-12-26T06:49:50.849Z,2.88
2018-12-26T06:50:54.281Z,2.82
2018-12-26T06:51:57.723Z,2.83
2018-12-26T06:53:01.240Z,2.85
2018-12-26T06:54:04.830Z,2.82
2018-12-26T06:55:08.392Z,2.79
2018-12-26T06:56:11.862Z,2.77
2018-12-26T06:57:15.290Z,2.80
2018-12-26T06:58:18.792Z,2.77
2018-12-26T06:59:22.240Z,2.75
2018-12-26T07:00:25.742Z,2.69
2018-12-26T07:01:29.290Z,2.65
2018-12-26T07:02:32.729Z,2.59
2018-12-26T07:03:36.233Z,2.57
2018-12-26T07:04:39.816Z,2.59
2018-12-26T07:05:43.313Z,2.58
2018-12-26T07:06:46.761Z,2.60
2018-12-26T07:07:50.288Z,2.58
2018-12-26T07:08:53.789Z,2.57
2018-12-26T07:09:57.451Z,2.57
2018-12-26T07:11:01.043Z,2.57
2018-12-26T07:12:04.516Z,2.56
2018-12-26T07:13:08.168Z,2.57
2018-12-26T07:14:11.727Z,2.58
2018-12-26T07:15:15.181Z,2.60
2018-12-26T07:16:18.876Z,2.65
2018-12-26T07:17:22.382Z,2.67
2018-12-26T07:18:25.835Z,2.68
2018-12-26T07:19:29.323Z,2.70
2018-12-26T07:20:32.961Z,2.70
2018-12-26T07:21:36.436Z,2.67
2018-12-26T07:22:39.961Z,2.62
2018-12-26T07:23:43.543Z,2.64
2018-12-26T07:24:47.003Z,2.65
2018-12-26T07:25:50.450Z,2.64
2018-12-26T07:26:54.073Z,2.64
2018-12-26T07:27:57.581Z,2.61
2018-12-26T07:29:01.145Z,2.63
2018-12-26T07:30:05.703Z,2.62
2018-12-26T07:31:09.277Z,2.61
2018-12-26T07:32:12.774Z,2.59
2018-12-26T07:33:16.291Z,2.56
2018-12-26T07:34:19.810Z,2.58
2018-12-26T07:35:23.238Z,2.61
2018-12-26T07:36:26.804Z,2.62
2018-12-26T07:37:30.572Z,2.65
2018-12-26T07:38:34.131Z,2.65
2018-12-26T07:39:37.628Z,2.64
2018-12-26T07:40:41.201Z,2.58
2018-12-26T07:41:44.665Z,2.57
2018-12-26T07:42:48.135Z,2.60
2018-12-26T07:43:51.616Z,2.61
2018-12-26T07:44:55.162Z,2.59
2018-12-26T07:45:58.698Z,2.64
2018-12-26T07:47:02.143Z,2.61
2018-12-26T07:48:05.859Z,2.57
2018-12-26T07:49:09.443Z,2.53
2018-12-26T07:50:12.941Z,2.61
2018-12-26T07:51:16.483Z,2.56
2018-12-26T07:52:20.066Z,2.61
2018-12-26T07:53:23.594Z,2.66
2018-12-26T07:54:27.035Z,2.56
2018-12-26T07:55:30.618Z,2.54
2018-12-26T07:56:34.224Z,2.54
2018-12-26T07:57:37.901Z,2.56
2018-12-26T07:58:41.403Z,2.53
2018-12-26T07:59:44.889Z,2.51
2018-12-26T08:00:48.502Z,2.51
2018-12-26T08:01:51.951Z,2.53
2018-12-26T08:02:55.447Z,2.57
2018-12-26T08:03:58.940Z,2.58
2018-12-26T08:05:02.509Z,2.61
2018-12-26T08:06:06.072Z,2.61
2018-12-26T08:07:09.674Z,2.66
2018-12-26T08:08:13.129Z,2.71
2018-12-26T08:09:16.724Z,2.73
2018-12-26T08:10:20.249Z,2.71
2018-12-26T08:11:23.680Z,2.69
2018-12-26T08:12:27.237Z,2.69
2018-12-26T08:13:30.706Z,2.70
2018-12-26T08:14:34.267Z,2.72
2018-12-26T08:15:37.923Z,2.74
2018-12-26T08:16:41.391Z,2.81
2018-12-26T08:17:44.856Z,2.77
2018-12-26T08:18:48.339Z,2.78
2018-12-26T08:19:52.133Z,2.76
2018-12-26T08:20:55.643Z,2.73
2018-12-26T08:21:59.140Z,2.69
2018-12-26T08:23:02.647Z,2.72
2018-12-26T08:24:06.103Z,2.74
2018-12-26T08:25:09.591Z,2.82
2018-12-26T08:26:13.235Z,2.83
2018-12-26T08:27:16.670Z,2.84
2018-12-26T08:28:26.604Z,2.86
2018-12-26T08:29:25.232Z,2.84
2018-12-26T08:30:28.662Z,2.78
2018-12-26T08:31:32.092Z,2.76
2018-12-26T08:32:35.531Z,2.77
2018-12-26T08:33:39.051Z,2.83
2018-12-26T08:34:42.487Z,2.86
2018-12-26T08:35:45.936Z,2.84
2018-12-26T08:36:49.374Z,2.87
2018-12-26T08:37:52.810Z,2.88
2018-12-26T08:38:56.242Z,2.80
2018-12-26T08:39:59.692Z,2.81
2018-12-26T08:41:03.137Z,2.86
2018-12-26T08:42:06.566Z,2.84
2018-12-26T08:43:09.994Z,2.79
2018-12-26T08:44:13.532Z,2.78
2018-12-26T08:45:17.027Z,2.79
2018-12-26T08:46:20.476Z,2.83
2018-12-26T08:47:23.916Z,2.83
2018-12-26T08:48:27.348Z,2.82
2018-12-26T08:49:30.785Z,2.82
2018-12-26T08:50:34.240Z,2.86
2018-12-26T08:51:37.760Z,2.90
2018-12-26T08:52:41.193Z,3.03
2018-12-26T08:53:44.671Z,3.02
2018-12-26T08:54:48.123Z,3.02
2018-12-26T08:55:51.564Z,2.96
2018-12-26T08:56:55.033Z,2.96
2018-12-26T08:57:58.462Z,3.00
2018-12-26T08:59:01.960Z,3.11
2018-12-26T09:00:07.598Z,3.06
2018-12-26T09:01:11.049Z,3.01
2018-12-26T09:02:14.497Z,2.99
2018-12-26T09:03:17.926Z,3.02
2018-12-26T09:04:21.340Z,3.01
2018-12-26T09:05:24.798Z,3.03
2018-12-26T09:06:28.245Z,2.98
2018-12-26T09:07:31.768Z,3.03
2018-12-26T09:08:35.265Z,2.91
2018-12-26T09:09:38.698Z,2.87
2018-12-26T09:10:42.161Z,2.81
2018-12-26T09:11:45.641Z,2.85
2018-12-26T09:12:49.117Z,2.91
2018-12-26T09:13:52.540Z,3.00
2018-12-26T09:14:55.969Z,2.95
2018-12-26T09:15:59.475Z,2.87
2018-12-26T09:17:02.999Z,2.82
2018-12-26T09:18:06.442Z,2.83
2018-12-26T09:19:09.866Z,2.80
2018-12-26T09:20:13.375Z,2.76
2018-12-26T09:21:16.813Z,2.74
2018-12-26T09:22:20.350Z,2.80
2018-12-26T09:23:23.803Z,2.78
2018-12-26T09:24:27.230Z,2.84
2018-12-26T09:25:30.897Z,2.88
2018-12-26T09:26:34.769Z,2.98
2018-12-26T09:27:38.355Z,2.90
2018-12-26T09:28:43.863Z,2.99
2018-12-26T09:29:47.312Z,3.03
2018-12-26T09:30:50.872Z,3.03
2018-12-26T09:31:54.296Z,3.11
2018-12-26T09:32:57.966Z,3.06
2018-12-26T09:34:01.530Z,3.12
2018-12-26T09:35:07.617Z,3.14
2018-12-26T09:36:11.057Z,3.00
2018-12-26T09:37:14.482Z,3.03
2018-12-26T09:38:17.994Z,3.06
2018-12-26T09:39:21.427Z,3.12
2018-12-26T09:40:25.026Z,3.13
2018-12-26T09:41:28.525Z,3.15
2018-12-26T09:42:31.952Z,3.25
2018-12-26T09:43:35.563Z,3.30
2018-12-26T09:44:39.134Z,3.45
2018-12-26T09:45:42.624Z,3.43
2018-12-26T09:46:46.097Z,3.45
2018-12-26T09:47:49.611Z,3.47
2018-12-26T09:48:53.052Z,3.51
2018-12-26T09:49:56.513Z,3.58
2018-12-26T09:50:59.972Z,3.62
2018-12-26T09:52:03.395Z,3.69
2018-12-26T09:53:07.000Z,3.70
2018-12-26T09:54:10.465Z,3.66
2018-12-26T09:55:14.022Z,3.70
2018-12-26T09:56:17.550Z,3.77
2018-12-26T09:57:20.967Z,3.75
2018-12-26T09:58:24.402Z,3.74
2018-12-26T09:59:28.073Z,3.74
2018-12-26T10:00:31.491Z,3.74
2018-12-26T10:01:34.954Z,3.84
2018-12-26T10:02:38.534Z,3.72
2018-12-26T10:03:42.142Z,3.68
2018-12-26T10:04:45.561Z,3.60
2018-12-26T10:05:49.058Z,3.57
2018-12-26T10:06:52.482Z,3.58
2018-12-26T10:07:56.131Z,3.56
2018-12-26T10:08:59.816Z,3.59
2018-12-26T10:10:03.770Z,3.57
2018-12-26T10:11:07.224Z,3.50
2018-12-26T10:12:10.793Z,3.39
2018-12-26T10:13:14.282Z,3.38
2018-12-26T10:14:17.933Z,3.36
2018-12-26T10:15:21.489Z,3.49
2018-12-26T10:16:25.010Z,3.49
2018-12-26T10:17:28.485Z,3.58
2018-12-26T10:18:31.980Z,3.72
2018-12-26T10:19:35.564Z,3.78
2018-12-26T10:20:39.068Z,3.82
2018-12-26T10:21:42.593Z,3.82
2018-12-26T10:22:46.100Z,3.86
2018-12-26T10:23:49.596Z,3.91
2018-12-26T10:24:53.030Z,3.90
2018-12-26T10:25:56.810Z,3.82
2018-12-26T10:27:00.384Z,3.84
2018-12-26T10:28:03.883Z,3.83
2018-12-26T10:29:10.610Z,3.78
2018-12-26T10:30:14.000Z,3.80
2018-12-26T10:31:17.559Z,3.79
2018-12-26T10:32:21.429Z,3.95
2018-12-26T10:33:24.922Z,3.91
2018-12-26T10:34:28.417Z,3.93
2018-12-26T10:35:31.973Z,3.88
2018-12-26T10:36:35.704Z,3.87
2018-12-26T10:37:41.087Z,3.91
2018-12-26T10:38:44.388Z,4.02
2018-12-26T10:39:48.046Z,4.08
2018-12-26T10:40:51.457Z,4.18
2018-12-26T10:41:54.916Z,4.18
2018-12-26T10:42:58.690Z,4.18
2018-12-26T10:44:02.064Z,4.22
2018-12-26T10:45:06.226Z,4.24
2018-12-26T10:46:09.709Z,4.25
2018-12-26T10:47:13.216Z,4.18
2018-12-26T10:48:16.834Z,4.23
2018-12-26T10:49:20.432Z,4.34
2018-12-26T10:50:23.834Z,4.47
2018-12-26T10:51:27.354Z,4.47
2018-12-26T10:52:30.800Z,4.60
2018-12-26T10:53:34.281Z,4.69
2018-12-26T10:54:37.794Z,4.72
2018-12-26T10:55:41.323Z,4.84
2018-12-26T10:56:44.732Z,4.91
2018-12-26T10:57:48.171Z,5.05
2018-12-26T10:58:51.681Z,5.15
2018-12-26T10:59:55.290Z,5.17
2018-12-26T11:00:58.725Z,5.26
2018-12-26T11:02:02.228Z,5.51
2018-12-26T11:03:05.666Z,5.79
2018-12-26T11:04:09.100Z,5.97
2018-12-26T11:05:12.522Z,6.29
2018-12-26T11:06:15.951Z,6.47
2018-12-26T11:07:19.385Z,6.55
2018-12-26T11:08:22.832Z,6.55
2018-12-26T11:09:26.308Z,6.60
2018-12-26T11:10:29.728Z,6.63
2018-12-26T11:11:33.163Z,6.65
2018-12-26T11:12:36.592Z,6.71
2018-12-26T11:13:40.106Z,6.79
2018-12-26T11:14:43.543Z,6.90
2018-12-26T11:15:47.268Z,6.93
2018-12-26T11:16:51.901Z,6.91
2018-12-26T11:17:56.311Z,6.77
2018-12-26T11:19:00.094Z,6.75
2018-12-26T11:20:05.764Z,6.75
2018-12-26T11:21:09.257Z,6.75
2018-12-26T11:22:12.758Z,6.81
2018-12-26T11:23:16.189Z,6.85
2018-12-26T11:24:19.709Z,6.84
2018-12-26T11:25:23.219Z,6.85
2018-12-26T11:26:26.647Z,6.84
2018-12-26T11:27:30.133Z,6.80
2018-12-26T11:28:33.555Z,6.69
2018-12-26T11:29:37.193Z,6.64
2018-12-26T11:30:40.700Z,6.68
2018-12-26T11:31:44.135Z,6.71
2018-12-26T11:32:47.563Z,6.78
2018-12-26T11:33:51.060Z,6.85
2018-12-26T11:34:54.500Z,6.96
2018-12-26T11:35:57.975Z,7.05
2018-12-26T11:37:01.509Z,7.10
2018-12-26T11:38:05.055Z,7.14
2018-12-26T11:39:08.639Z,7.16
2018-12-26T11:40:12.125Z,7.23
2018-12-26T11:41:15.691Z,7.33
2018-12-26T11:42:19.253Z,7.43
2018-12-26T11:43:22.674Z,7.45
2018-12-26T11:44:26.122Z,7.52
2018-12-26T11:45:29.632Z,7.63
2018-12-26T11:46:33.188Z,7.75
2018-12-26T11:47:36.568Z,7.89
2018-12-26T11:48:40.062Z,7.95
2018-12-26T11:49:43.486Z,8.04
2018-12-26T11:50:47.079Z,8.14
2018-12-26T11:51:50.520Z,8.25
2018-12-26T11:52:54.094Z,8.29
2018-12-26T11:53:57.545Z,8.40
2018-12-26T11:55:01.115Z,8.41
2018-12-26T11:56:04.704Z,8.48
2018-12-26T11:57:08.203Z,8.54
2018-12-26T11:58:11.645Z,8.63
2018-12-26T11:59:15.097Z,8.70
2018-12-26T12:00:18.584Z,8.72
2018-12-26T12:01:22.021Z,8.82
2018-12-26T12:02:25.537Z,8.90
2018-12-26T12:03:29.044Z,8.92
2018-12-26T12:04:32.545Z,8.97
2018-12-26T12:05:36.111Z,9.03
2018-12-26T12:06:39.846Z,9.01
2018-12-26T12:07:43.384Z,8.99
2018-12-26T12:08:46.957Z,9.00
2018-12-26T12:09:50.489Z,9.03
2018-12-26T12:10:54.047Z,9.02
2018-12-26T12:11:57.651Z,9.04
2018-12-26T12:13:01.166Z,9.06
2018-12-26T12:14:04.784Z,9.11
2018-12-26T12:15:08.410Z,9.13
2018-12-26T12:16:11.905Z,9.12
2018-12-26T12:17:15.386Z,9.15
2018-12-26T12:18:18.838Z,9.20
2018-12-26T12:19:22.371Z,9.18
2018-12-26T12:20:25.885Z,9.16
2018-12-26T12:21:29.462Z,9.14
2018-12-26T12:22:33.019Z,9.11
2018-12-26T12:23:36.488Z,9.10
2018-12-26T12:24:39.927Z,9.10
2018-12-26T12:25:43.390Z,9.18
2018-12-26T12:26:46.827Z,9.29
2018-12-26T12:27:50.278Z,9.41
2018-12-26T12:28:53.864Z,9.48
2018-12-26T12:29:57.308Z,9.48
2018-12-26T12:31:00.754Z,9.47
2018-12-26T12:32:04.254Z,9.46
2018-12-26T12:33:07.711Z,9.50
2018-12-26T12:34:11.161Z,9.62
2018-12-26T12:35:14.660Z,9.69
2018-12-26T12:36:18.161Z,9.71
2018-12-26T12:37:21.737Z,9.65
2018-12-26T12:38:25.188Z,9.67
2018-12-26T12:39:28.710Z,9.61
2018-12-26T12:40:32.350Z,9.57
2018-12-26T12:41:35.862Z,9.48
2018-12-26T12:42:39.368Z,9.43
2018-12-26T12:43:42.832Z,9.33
2018-12-26T12:44:46.332Z,9.24
2018-12-26T12:45:49.851Z,9.20
2018-12-26T12:46:53.359Z,9.12
2018-12-26T12:47:56.921Z,9.06
2018-12-26T12:49:00.716Z,9.13
2018-12-26T12:50:04.989Z,9.19
2018-12-26T12:51:08.563Z,9.22
2018-12-26T12:52:11.994Z,9.26
2018-12-26T12:53:15.437Z,9.15
2018-12-26T12:54:18.885Z,9.18
2018-12-26T12:55:22.398Z,9.15
2018-12-26T12:56:25.966Z,9.18
2018-12-26T12:57:29.487Z,9.25
2018-12-26T12:58:32.920Z,9.29
2018-12-26T12:59:44.571Z,9.27
2018-12-26T13:00:41.681Z,9.24
2018-12-26T13:01:45.187Z,9.25
2018-12-26T13:02:48.770Z,9.28
2018-12-26T13:03:52.206Z,9.25
2018-12-26T13:04:55.722Z,9.21
2018-12-26T13:05:59.247Z,9.16
2018-12-26T13:07:02.799Z,9.09
2018-12-26T13:08:06.409Z,9.04
2018-12-26T13:09:09.852Z,9.04
2018-12-26T13:10:13.314Z,9.01
2018-12-26T13:11:16.768Z,8.96
2018-12-26T13:12:20.270Z,8.88
2018-12-26T13:13:23.713Z,8.83
2018-12-26T13:14:27.150Z,8.77
2018-12-26T13:15:30.663Z,8.68
2018-12-26T13:16:34.145Z,8.59
2018-12-26T13:17:37.651Z,8.53
2018-12-26T13:18:41.083Z,8.51
2018-12-26T13:19:44.518Z,8.45
2018-12-26T13:20:47.985Z,8.38
2018-12-26T13:21:51.527Z,8.24
2018-12-26T13:22:54.991Z,8.09
2018-12-26T13:23:58.430Z,8.06
2018-12-26T13:25:01.879Z,7.99
2018-12-26T13:26:05.348Z,7.92
2018-12-26T13:27:08.868Z,7.81
2018-12-26T13:28:12.314Z,7.74
2018-12-26T13:29:15.822Z,7.66
2018-12-26T13:30:19.289Z,7.60
2018-12-26T13:31:22.830Z,7.54
2018-12-26T13:32:26.362Z,7.47
2018-12-26T13:33:29.969Z,7.45
2018-12-26T13:34:33.437Z,7.60
2018-12-26T13:35:36.896Z,7.57
2018-12-26T13:36:40.486Z,7.53
2018-12-26T13:37:44.040Z,7.58
2018-12-26T13:38:47.481Z,7.49
2018-12-26T13:39:50.929Z,7.41
2018-12-26T13:40:54.379Z,7.33
2018-12-26T13:41:57.895Z,7.27
2018-12-26T13:43:01.400Z,7.23
2018-12-26T13:44:04.823Z,7.21
2018-12-26T13:45:08.340Z,7.19
2018-12-26T13:46:11.769Z,7.16
2018-12-26T13:47:15.240Z,7.13
2018-12-26T13:48:18.706Z,7.10
2018-12-26T13:49:23.126Z,7.10
2018-12-26T13:50:26.624Z,7.12
2018-12-26T13:51:30.086Z,7.08
2018-12-26T13:52:33.547Z,7.03
2018-12-26T13:53:37.019Z,7.07
2018-12-26T13:54:40.453Z,7.02
2018-12-26T13:55:43.884Z,6.95
2018-12-26T13:56:47.793Z,6.93
2018-12-26T13:57:51.315Z,6.89
2018-12-26T13:58:54.807Z,6.89
2018-12-26T14:00:02.251Z,6.89
2018-12-26T14:01:03.489Z,6.90
2018-12-26T14:02:07.040Z,6.88
2018-12-26T14:03:10.486Z,6.78
2018-12-26T14:04:13.990Z,6.69
2018-12-26T14:05:17.452Z,6.64